sensor_id;sensor_type;location;lat;lon;timestamp;temperature;humidity
17215;DHT22;8723;51.502;6.918;2023-08-07T00:01:45;13.80;99.90
17215;DHT22;8723;51.502;6.918;2023-08-07T00:04:12;13.70;99.90
17215;DHT22;8723;51.502;6.918;2023-08-07T00:06:39;13.70;99.90
17215;DHT22;8723;51.502;6.918;2023-08-07T00:09:06;13.80;99.90
17215;DHT22;8723;51.502;6.918;2023-08-07T00:11:34;13.70;99.90
17215;DHT22;8723;51.502;6.918;2023-08-07T00:14:01;13.70;99.90
17215;DHT22;8723;51.502;6.918;2023-08-07T00:16:28;13.70;99.90
17215;DHT22;8723;51.502;6.918;2023-08-07T00:18:54;13.70;99.90
17215;DHT22;8723;51.502;6.918;2023-08-07T00:21:21;13.80;99.90
17215;DHT22;8723;51.502;6.918;2023-08-07T00:23:48;13.80;99.90
17215;DHT22;8723;51.502;6.918;2023-08-07T00:26:16;13.70;99.90
17215;DHT22;8723;51.502;6.918;2023-08-07T00:28:44;13.70;99.90
17215;DHT22;8723;51.502;6.918;2023-08-07T00:31:11;13.70;99.90
17215;DHT22;8723;51.502;6.918;2023-08-07T00:33:38;13.80;99.90
17215;DHT22;8723;51.502;6.918;2023-08-07T00:36:04;13.80;99.90
17215;DHT22;8723;51.502;6.918;2023-08-07T00:38:31;13.70;99.90
17215;DHT22;8723;51.502;6.918;2023-08-07T00:40:58;13.80;99.90
17215;DHT22;8723;51.502;6.918;2023-08-07T00:43:26;13.90;99.90
17215;DHT22;8723;51.502;6.918;2023-08-07T00:45:54;13.80;99.90
17215;DHT22;8723;51.502;6.918;2023-08-07T00:48:21;13.80;99.90
17215;DHT22;8723;51.502;6.918;2023-08-07T00:50:48;13.80;99.90
17215;DHT22;8723;51.502;6.918;2023-08-07T00:53:15;13.90;99.90
17215;DHT22;8723;51.502;6.918;2023-08-07T00:55:43;13.80;99.90
17215;DHT22;8723;51.502;6.918;2023-08-07T00:58:10;13.80;99.90
17215;DHT22;8723;51.502;6.918;2023-08-07T01:00:37;13.80;99.90
17215;DHT22;8723;51.502;6.918;2023-08-07T01:03:08;13.70;99.90
17215;DHT22;8723;51.502;6.918;2023-08-07T01:05:37;13.70;99.90
17215;DHT22;8723;51.502;6.918;2023-08-07T01:08:04;13.70;99.90
17215;DHT22;8723;51.502;6.918;2023-08-07T01:10:35;13.60;99.90
17215;DHT22;8723;51.502;6.918;2023-08-07T01:13:08;13.60;99.90
17215;DHT22;8723;51.502;6.918;2023-08-07T01:15:39;13.70;99.90
17215;DHT22;8723;51.502;6.918;2023-08-07T01:18:08;13.70;99.90
17215;DHT22;8723;51.502;6.918;2023-08-07T01:20:35;13.60;99.90
17215;DHT22;8723;51.502;6.918;2023-08-07T01:23:04;13.70;99.90
17215;DHT22;8723;51.502;6.918;2023-08-07T01:25:31;13.70;99.90
17215;DHT22;8723;51.502;6.918;2023-08-07T01:28:02;13.60;99.90
17215;DHT22;8723;51.502;6.918;2023-08-07T01:30:36;13.60;99.90
17215;DHT22;8723;51.502;6.918;2023-08-07T01:33:10;13.70;99.90
17215;DHT22;8723;51.502;6.918;2023-08-07T01:35:42;13.60;99.90
17215;DHT22;8723;51.502;6.918;2023-08-07T01:38:11;13.60;99.90
17215;DHT22;8723;51.502;6.918;2023-08-07T01:40:41;13.50;99.90
17215;DHT22;8723;51.502;6.918;2023-08-07T01:43:11;13.50;99.90
17215;DHT22;8723;51.502;6.918;2023-08-07T01:45:40;13.60;99.90
17215;DHT22;8723;51.502;6.918;2023-08-07T01:48:10;13.70;99.90
17215;DHT22;8723;51.502;6.918;2023-08-07T01:50:39;13.70;99.90
17215;DHT22;8723;51.502;6.918;2023-08-07T01:53:11;13.60;99.90
17215;DHT22;8723;51.502;6.918;2023-08-07T01:55:41;13.60;99.90
17215;DHT22;8723;51.502;6.918;2023-08-07T01:58:10;13.60;99.90
17215;DHT22;8723;51.502;6.918;2023-08-07T02:00:40;13.70;99.90
17215;DHT22;8723;51.502;6.918;2023-08-07T02:03:10;13.60;99.90
17215;DHT22;8723;51.502;6.918;2023-08-07T02:05:40;13.60;99.90
17215;DHT22;8723;51.502;6.918;2023-08-07T02:08:08;13.60;99.90
17215;DHT22;8723;51.502;6.918;2023-08-07T02:10:36;13.60;99.90
17215;DHT22;8723;51.502;6.918;2023-08-07T02:13:04;13.60;99.90
17215;DHT22;8723;51.502;6.918;2023-08-07T02:15:34;13.50;99.90
17215;DHT22;8723;51.502;6.918;2023-08-07T02:18:03;13.50;99.90
17215;DHT22;8723;51.502;6.918;2023-08-07T02:20:33;13.60;99.90
17215;DHT22;8723;51.502;6.918;2023-08-07T02:23:02;13.50;99.90
17215;DHT22;8723;51.502;6.918;2023-08-07T02:25:32;13.60;99.90
17215;DHT22;8723;51.502;6.918;2023-08-07T02:28:04;13.60;99.90
17215;DHT22;8723;51.502;6.918;2023-08-07T02:30:32;13.60;99.90
17215;DHT22;8723;51.502;6.918;2023-08-07T02:33:00;13.60;99.90
17215;DHT22;8723;51.502;6.918;2023-08-07T02:35:29;13.70;99.90
17215;DHT22;8723;51.502;6.918;2023-08-07T02:37:56;13.70;99.90
17215;DHT22;8723;51.502;6.918;2023-08-07T02:40:23;13.60;99.90
17215;DHT22;8723;51.502;6.918;2023-08-07T02:42:50;13.70;99.90
17215;DHT22;8723;51.502;6.918;2023-08-07T02:45:18;13.50;99.90
17215;DHT22;8723;51.502;6.918;2023-08-07T02:47:45;13.50;99.90
17215;DHT22;8723;51.502;6.918;2023-08-07T02:50:12;13.50;99.90
17215;DHT22;8723;51.502;6.918;2023-08-07T02:52:38;13.50;99.90
17215;DHT22;8723;51.502;6.918;2023-08-07T02:55:06;13.60;99.90
17215;DHT22;8723;51.502;6.918;2023-08-07T02:57:33;13.50;99.90
17215;DHT22;8723;51.502;6.918;2023-08-07T02:59:59;13.60;99.90
17215;DHT22;8723;51.502;6.918;2023-08-07T03:02:29;13.60;99.90
17215;DHT22;8723;51.502;6.918;2023-08-07T03:04:58;13.60;99.90
17215;DHT22;8723;51.502;6.918;2023-08-07T03:07:27;13.60;99.90
17215;DHT22;8723;51.502;6.918;2023-08-07T03:09:57;13.60;99.90
17215;DHT22;8723;51.502;6.918;2023-08-07T03:12:26;13.60;99.90
17215;DHT22;8723;51.502;6.918;2023-08-07T03:14:54;13.60;99.90
17215;DHT22;8723;51.502;6.918;2023-08-07T03:17:21;13.50;99.90
17215;DHT22;8723;51.502;6.918;2023-08-07T03:19:49;13.50;99.90
17215;DHT22;8723;51.502;6.918;2023-08-07T03:22:16;13.50;99.90
17215;DHT22;8723;51.502;6.918;2023-08-07T03:24:46;13.50;99.90
17215;DHT22;8723;51.502;6.918;2023-08-07T03:27:13;13.50;99.90
17215;DHT22;8723;51.502;6.918;2023-08-07T03:29:40;13.50;99.90
17215;DHT22;8723;51.502;6.918;2023-08-07T03:32:08;13.40;99.90
17215;DHT22;8723;51.502;6.918;2023-08-07T03:34:34;13.30;99.90
17215;DHT22;8723;51.502;6.918;2023-08-07T03:37:03;13.30;99.90
17215;DHT22;8723;51.502;6.918;2023-08-07T03:39:30;13.30;99.90
17215;DHT22;8723;51.502;6.918;2023-08-07T03:41:56;13.30;99.90
17215;DHT22;8723;51.502;6.918;2023-08-07T03:44:23;13.30;99.90
17215;DHT22;8723;51.502;6.918;2023-08-07T03:46:50;13.40;99.90
17215;DHT22;8723;51.502;6.918;2023-08-07T03:49:17;13.30;99.90
17215;DHT22;8723;51.502;6.918;2023-08-07T03:51:44;13.30;99.90
17215;DHT22;8723;51.502;6.918;2023-08-07T03:54:12;13.30;99.90
17215;DHT22;8723;51.502;6.918;2023-08-07T03:56:38;13.30;99.90
17215;DHT22;8723;51.502;6.918;2023-08-07T03:59:05;13.20;99.90
17215;DHT22;8723;51.502;6.918;2023-08-07T04:01:32;13.30;99.90
17215;DHT22;8723;51.502;6.918;2023-08-07T04:03:59;13.30;99.90
17215;DHT22;8723;51.502;6.918;2023-08-07T04:06:26;13.30;99.90
17215;DHT22;8723;51.502;6.918;2023-08-07T04:08:54;13.30;99.90
17215;DHT22;8723;51.502;6.918;2023-08-07T04:11:22;13.40;99.90
17215;DHT22;8723;51.502;6.918;2023-08-07T04:13:49;13.40;99.90
17215;DHT22;8723;51.502;6.918;2023-08-07T04:16:15;13.40;99.90
17215;DHT22;8723;51.502;6.918;2023-08-07T04:18:42;13.30;99.90
17215;DHT22;8723;51.502;6.918;2023-08-07T04:21:09;13.30;99.90
17215;DHT22;8723;51.502;6.918;2023-08-07T04:23:36;13.30;99.90
17215;DHT22;8723;51.502;6.918;2023-08-07T04:26:03;13.40;99.90
17215;DHT22;8723;51.502;6.918;2023-08-07T04:28:31;13.40;99.90
17215;DHT22;8723;51.502;6.918;2023-08-07T04:30:57;13.40;99.90
17215;DHT22;8723;51.502;6.918;2023-08-07T04:33:24;13.40;99.90
17215;DHT22;8723;51.502;6.918;2023-08-07T04:35:51;13.40;99.90
17215;DHT22;8723;51.502;6.918;2023-08-07T04:38:19;13.40;99.90
17215;DHT22;8723;51.502;6.918;2023-08-07T04:40:47;13.50;99.90
17215;DHT22;8723;51.502;6.918;2023-08-07T04:43:14;13.50;99.90
17215;DHT22;8723;51.502;6.918;2023-08-07T04:45:43;13.40;99.90
17215;DHT22;8723;51.502;6.918;2023-08-07T04:48:11;13.40;99.90
17215;DHT22;8723;51.502;6.918;2023-08-07T04:50:38;13.40;99.90
17215;DHT22;8723;51.502;6.918;2023-08-07T04:53:05;13.40;99.90
17215;DHT22;8723;51.502;6.918;2023-08-07T04:55:32;13.30;99.90
17215;DHT22;8723;51.502;6.918;2023-08-07T04:57:59;13.40;99.90
17215;DHT22;8723;51.502;6.918;2023-08-07T05:00:26;13.40;99.90
17215;DHT22;8723;51.502;6.918;2023-08-07T05:02:55;13.50;99.90
17215;DHT22;8723;51.502;6.918;2023-08-07T05:05:22;13.40;99.90
17215;DHT22;8723;51.502;6.918;2023-08-07T05:07:49;13.50;99.90
17215;DHT22;8723;51.502;6.918;2023-08-07T05:10:15;13.40;99.90
17215;DHT22;8723;51.502;6.918;2023-08-07T05:12:41;13.40;99.90
17215;DHT22;8723;51.502;6.918;2023-08-07T05:15:09;13.40;99.90
17215;DHT22;8723;51.502;6.918;2023-08-07T05:17:36;13.40;99.90
17215;DHT22;8723;51.502;6.918;2023-08-07T05:20:05;13.40;99.90
17215;DHT22;8723;51.502;6.918;2023-08-07T05:22:32;13.50;99.90
17215;DHT22;8723;51.502;6.918;2023-08-07T05:24:59;13.50;99.90
17215;DHT22;8723;51.502;6.918;2023-08-07T05:27:26;13.50;99.90
17215;DHT22;8723;51.502;6.918;2023-08-07T05:29:52;13.50;99.90
17215;DHT22;8723;51.502;6.918;2023-08-07T05:32:19;13.50;99.90
17215;DHT22;8723;51.502;6.918;2023-08-07T05:34:46;13.40;99.90
17215;DHT22;8723;51.502;6.918;2023-08-07T05:37:14;13.40;99.90
17215;DHT22;8723;51.502;6.918;2023-08-07T05:39:41;13.40;99.90
17215;DHT22;8723;51.502;6.918;2023-08-07T05:42:08;13.40;99.90
17215;DHT22;8723;51.502;6.918;2023-08-07T05:44:35;13.30;99.90
17215;DHT22;8723;51.502;6.918;2023-08-07T05:47:02;13.20;99.90
17215;DHT22;8723;51.502;6.918;2023-08-07T05:49:29;13.30;99.90
17215;DHT22;8723;51.502;6.918;2023-08-07T05:51:57;13.30;99.90
17215;DHT22;8723;51.502;6.918;2023-08-07T05:54:25;13.30;99.90
17215;DHT22;8723;51.502;6.918;2023-08-07T05:56:52;13.30;99.90
17215;DHT22;8723;51.502;6.918;2023-08-07T05:59:19;13.40;99.90
17215;DHT22;8723;51.502;6.918;2023-08-07T06:01:46;13.30;99.90
17215;DHT22;8723;51.502;6.918;2023-08-07T06:04:13;13.40;99.90
17215;DHT22;8723;51.502;6.918;2023-08-07T06:06:39;13.30;99.90
17215;DHT22;8723;51.502;6.918;2023-08-07T06:09:08;13.30;99.90
17215;DHT22;8723;51.502;6.918;2023-08-07T06:11:36;13.40;99.90
17215;DHT22;8723;51.502;6.918;2023-08-07T06:14:03;13.40;99.90
17215;DHT22;8723;51.502;6.918;2023-08-07T06:16:29;13.50;99.90
17215;DHT22;8723;51.502;6.918;2023-08-07T06:18:56;13.40;99.90
17215;DHT22;8723;51.502;6.918;2023-08-07T06:21:23;13.50;99.90
17215;DHT22;8723;51.502;6.918;2023-08-07T06:23:50;13.50;99.90
17215;DHT22;8723;51.502;6.918;2023-08-07T06:26:17;13.40;99.90
17215;DHT22;8723;51.502;6.918;2023-08-07T06:28:45;13.50;99.90
17215;DHT22;8723;51.502;6.918;2023-08-07T06:31:12;13.60;99.90
17215;DHT22;8723;51.502;6.918;2023-08-07T06:33:39;13.70;99.90
17215;DHT22;8723;51.502;6.918;2023-08-07T06:36:07;13.70;99.90
17215;DHT22;8723;51.502;6.918;2023-08-07T06:38:34;13.60;99.90
17215;DHT22;8723;51.502;6.918;2023-08-07T06:41:01;13.60;99.90
17215;DHT22;8723;51.502;6.918;2023-08-07T06:43:27;13.70;99.90
17215;DHT22;8723;51.502;6.918;2023-08-07T06:45:56;13.60;99.90
17215;DHT22;8723;51.502;6.918;2023-08-07T06:48:23;13.60;99.90
17215;DHT22;8723;51.502;6.918;2023-08-07T06:50:51;13.60;99.90
17215;DHT22;8723;51.502;6.918;2023-08-07T06:53:18;13.60;99.90
17215;DHT22;8723;51.502;6.918;2023-08-07T06:55:45;13.60;99.90
17215;DHT22;8723;51.502;6.918;2023-08-07T06:58:12;13.60;99.90
17215;DHT22;8723;51.502;6.918;2023-08-07T07:00:39;13.60;99.90
17215;DHT22;8723;51.502;6.918;2023-08-07T07:03:07;13.70;99.90
17215;DHT22;8723;51.502;6.918;2023-08-07T07:05:35;13.80;99.90
17215;DHT22;8723;51.502;6.918;2023-08-07T07:08:02;13.80;99.90
17215;DHT22;8723;51.502;6.918;2023-08-07T07:10:29;13.70;99.90
17215;DHT22;8723;51.502;6.918;2023-08-07T07:12:56;13.70;99.90
17215;DHT22;8723;51.502;6.918;2023-08-07T07:15:23;13.70;99.90
17215;DHT22;8723;51.502;6.918;2023-08-07T07:17:49;13.70;99.90
17215;DHT22;8723;51.502;6.918;2023-08-07T07:20:18;13.60;99.90
17215;DHT22;8723;51.502;6.918;2023-08-07T07:22:45;13.60;99.90
17215;DHT22;8723;51.502;6.918;2023-08-07T07:25:11;13.70;99.90
17215;DHT22;8723;51.502;6.918;2023-08-07T07:27:39;13.80;99.90
17215;DHT22;8723;51.502;6.918;2023-08-07T07:30:07;13.70;99.90
17215;DHT22;8723;51.502;6.918;2023-08-07T07:32:34;13.80;99.90
17215;DHT22;8723;51.502;6.918;2023-08-07T07:35:01;13.80;99.90
17215;DHT22;8723;51.502;6.918;2023-08-07T07:37:31;13.80;99.90
17215;DHT22;8723;51.502;6.918;2023-08-07T07:39:58;13.80;99.90
17215;DHT22;8723;51.502;6.918;2023-08-07T07:42:25;13.80;99.90
17215;DHT22;8723;51.502;6.918;2023-08-07T07:44:51;13.80;99.90
17215;DHT22;8723;51.502;6.918;2023-08-07T07:47:18;13.90;99.90
17215;DHT22;8723;51.502;6.918;2023-08-07T07:49:46;13.90;99.90
17215;DHT22;8723;51.502;6.918;2023-08-07T07:52:13;14.00;99.90
17215;DHT22;8723;51.502;6.918;2023-08-07T07:54:42;14.00;99.90
17215;DHT22;8723;51.502;6.918;2023-08-07T07:57:09;14.00;99.90
17215;DHT22;8723;51.502;6.918;2023-08-07T07:59:36;14.00;99.90
17215;DHT22;8723;51.502;6.918;2023-08-07T08:02:03;14.00;99.90
17215;DHT22;8723;51.502;6.918;2023-08-07T08:04:30;14.00;99.90
17215;DHT22;8723;51.502;6.918;2023-08-07T08:06:57;14.00;99.90
17215;DHT22;8723;51.502;6.918;2023-08-07T08:09:25;14.10;99.90
17215;DHT22;8723;51.502;6.918;2023-08-07T08:11:53;14.10;99.90
17215;DHT22;8723;51.502;6.918;2023-08-07T08:14:20;14.10;99.90
17215;DHT22;8723;51.502;6.918;2023-08-07T08:16:46;14.10;99.90
17215;DHT22;8723;51.502;6.918;2023-08-07T08:19:13;14.20;99.90
17215;DHT22;8723;51.502;6.918;2023-08-07T08:21:41;14.20;99.90
17215;DHT22;8723;51.502;6.918;2023-08-07T08:24:08;14.30;99.90
17215;DHT22;8723;51.502;6.918;2023-08-07T08:26:35;14.40;99.90
17215;DHT22;8723;51.502;6.918;2023-08-07T08:29:03;14.40;99.90
17215;DHT22;8723;51.502;6.918;2023-08-07T08:31:31;14.40;99.90
17215;DHT22;8723;51.502;6.918;2023-08-07T08:33:57;14.50;99.90
17215;DHT22;8723;51.502;6.918;2023-08-07T08:36:24;14.60;99.90
17215;DHT22;8723;51.502;6.918;2023-08-07T08:38:51;14.70;99.90
17215;DHT22;8723;51.502;6.918;2023-08-07T08:41:19;14.80;99.90
17215;DHT22;8723;51.502;6.918;2023-08-07T08:43:46;14.80;99.90
17215;DHT22;8723;51.502;6.918;2023-08-07T08:46:15;14.80;99.90
17215;DHT22;8723;51.502;6.918;2023-08-07T08:48:49;14.80;99.90
17215;DHT22;8723;51.502;6.918;2023-08-07T08:51:17;14.90;99.90
17215;DHT22;8723;51.502;6.918;2023-08-07T08:53:44;14.90;99.90
17215;DHT22;8723;51.502;6.918;2023-08-07T08:56:11;15.00;99.90
17215;DHT22;8723;51.502;6.918;2023-08-07T08:58:38;15.00;99.90
17215;DHT22;8723;51.502;6.918;2023-08-07T09:01:08;15.10;99.90
17215;DHT22;8723;51.502;6.918;2023-08-07T09:03:37;15.20;99.90
17215;DHT22;8723;51.502;6.918;2023-08-07T09:06:04;15.20;99.90
17215;DHT22;8723;51.502;6.918;2023-08-07T09:08:32;15.30;99.90
17215;DHT22;8723;51.502;6.918;2023-08-07T09:11:01;15.40;99.90
17215;DHT22;8723;51.502;6.918;2023-08-07T09:13:29;15.50;99.90
17215;DHT22;8723;51.502;6.918;2023-08-07T09:15:59;15.60;99.90
17215;DHT22;8723;51.502;6.918;2023-08-07T09:18:26;15.60;99.90
17215;DHT22;8723;51.502;6.918;2023-08-07T09:20:54;15.60;99.90
17215;DHT22;8723;51.502;6.918;2023-08-07T09:23:23;15.60;99.90
17215;DHT22;8723;51.502;6.918;2023-08-07T09:25:59;15.80;99.90
17215;DHT22;8723;51.502;6.918;2023-08-07T09:28:26;15.90;99.90
17215;DHT22;8723;51.502;6.918;2023-08-07T09:30:54;16.00;99.90
17215;DHT22;8723;51.502;6.918;2023-08-07T09:33:24;16.00;99.90
17215;DHT22;8723;51.502;6.918;2023-08-07T09:35:54;15.90;99.90
17215;DHT22;8723;51.502;6.918;2023-08-07T09:38:23;15.80;99.90
17215;DHT22;8723;51.502;6.918;2023-08-07T09:40:50;15.70;99.90
17215;DHT22;8723;51.502;6.918;2023-08-07T09:43:20;15.50;99.90
17215;DHT22;8723;51.502;6.918;2023-08-07T09:45:48;15.20;99.90
17215;DHT22;8723;51.502;6.918;2023-08-07T09:48:24;15.10;99.90
17215;DHT22;8723;51.502;6.918;2023-08-07T09:50:54;15.00;99.90
17215;DHT22;8723;51.502;6.918;2023-08-07T09:53:25;14.90;99.90
17215;DHT22;8723;51.502;6.918;2023-08-07T09:55:52;14.90;99.90
17215;DHT22;8723;51.502;6.918;2023-08-07T09:58:20;14.90;99.90
17215;DHT22;8723;51.502;6.918;2023-08-07T10:00:47;15.00;99.90
17215;DHT22;8723;51.502;6.918;2023-08-07T10:03:14;15.10;99.90
17215;DHT22;8723;51.502;6.918;2023-08-07T10:05:43;15.20;99.90
17215;DHT22;8723;51.502;6.918;2023-08-07T10:08:12;15.40;99.90
17215;DHT22;8723;51.502;6.918;2023-08-07T10:10:39;15.40;99.90
17215;DHT22;8723;51.502;6.918;2023-08-07T10:13:06;15.50;99.90
17215;DHT22;8723;51.502;6.918;2023-08-07T10:15:33;15.50;99.90
17215;DHT22;8723;51.502;6.918;2023-08-07T10:18:01;15.40;99.90
17215;DHT22;8723;51.502;6.918;2023-08-07T10:20:29;15.40;99.90
17215;DHT22;8723;51.502;6.918;2023-08-07T10:23:00;15.30;99.90
17215;DHT22;8723;51.502;6.918;2023-08-07T10:25:32;15.40;99.90
17215;DHT22;8723;51.502;6.918;2023-08-07T10:28:01;15.60;99.90
17215;DHT22;8723;51.502;6.918;2023-08-07T10:30:29;15.80;99.90
17215;DHT22;8723;51.502;6.918;2023-08-07T10:32:58;15.90;99.90
17215;DHT22;8723;51.502;6.918;2023-08-07T10:35:26;15.90;99.90
17215;DHT22;8723;51.502;6.918;2023-08-07T10:37:53;15.80;99.90
17215;DHT22;8723;51.502;6.918;2023-08-07T10:40:20;15.70;99.90
17215;DHT22;8723;51.502;6.918;2023-08-07T10:42:56;15.30;99.90
17215;DHT22;8723;51.502;6.918;2023-08-07T10:45:24;15.30;99.90
17215;DHT22;8723;51.502;6.918;2023-08-07T10:48:08;15.30;99.90
17215;DHT22;8723;51.502;6.918;2023-08-07T10:50:46;15.30;99.90
17215;DHT22;8723;51.502;6.918;2023-08-07T10:53:19;15.50;99.90
17215;DHT22;8723;51.502;6.918;2023-08-07T10:55:47;15.70;99.90
17215;DHT22;8723;51.502;6.918;2023-08-07T10:58:26;15.90;99.90
17215;DHT22;8723;51.502;6.918;2023-08-07T11:01:16;16.00;99.90
17215;DHT22;8723;51.502;6.918;2023-08-07T11:03:44;16.10;99.90
17215;DHT22;8723;51.502;6.918;2023-08-07T11:06:11;16.30;99.90
17215;DHT22;8723;51.502;6.918;2023-08-07T11:08:38;16.50;99.90
17215;DHT22;8723;51.502;6.918;2023-08-07T11:11:06;16.70;99.90
17215;DHT22;8723;51.502;6.918;2023-08-07T11:13:34;16.70;99.90
17215;DHT22;8723;51.502;6.918;2023-08-07T11:16:01;16.80;99.90
17215;DHT22;8723;51.502;6.918;2023-08-07T11:18:29;17.00;99.90
17215;DHT22;8723;51.502;6.918;2023-08-07T11:20:56;17.30;99.90
17215;DHT22;8723;51.502;6.918;2023-08-07T11:23:24;17.50;99.90
17215;DHT22;8723;51.502;6.918;2023-08-07T11:25:51;17.60;99.90
17215;DHT22;8723;51.502;6.918;2023-08-07T11:28:18;17.60;99.90
17215;DHT22;8723;51.502;6.918;2023-08-07T11:30:49;17.70;99.90
17215;DHT22;8723;51.502;6.918;2023-08-07T11:33:17;17.50;99.90
17215;DHT22;8723;51.502;6.918;2023-08-07T11:35:45;17.30;99.90
17215;DHT22;8723;51.502;6.918;2023-08-07T11:38:12;17.30;99.90
17215;DHT22;8723;51.502;6.918;2023-08-07T11:40:38;17.20;99.90
17215;DHT22;8723;51.502;6.918;2023-08-07T11:43:05;17.30;99.90
17215;DHT22;8723;51.502;6.918;2023-08-07T11:45:32;17.40;99.90
17215;DHT22;8723;51.502;6.918;2023-08-07T11:48:02;17.30;99.90
17215;DHT22;8723;51.502;6.918;2023-08-07T11:50:28;17.50;99.90
17215;DHT22;8723;51.502;6.918;2023-08-07T11:52:55;17.60;99.90
17215;DHT22;8723;51.502;6.918;2023-08-07T11:55:28;17.80;99.90
17215;DHT22;8723;51.502;6.918;2023-08-07T11:57:55;18.00;99.90
17215;DHT22;8723;51.502;6.918;2023-08-07T12:00:25;18.20;99.90
17215;DHT22;8723;51.502;6.918;2023-08-07T12:02:53;18.20;99.90
17215;DHT22;8723;51.502;6.918;2023-08-07T12:05:21;18.30;1.00
17215;DHT22;8723;51.502;6.918;2023-08-07T12:07:49;18.40;99.90
17215;DHT22;8723;51.502;6.918;2023-08-07T12:10:16;18.60;99.90
17215;DHT22;8723;51.502;6.918;2023-08-07T12:12:43;18.70;52.70
17215;DHT22;8723;51.502;6.918;2023-08-07T12:15:10;18.90;4.80
17215;DHT22;8723;51.502;6.918;2023-08-07T12:17:37;18.90;1.00
17215;DHT22;8723;51.502;6.918;2023-08-07T12:20:05;19.00;1.00
17215;DHT22;8723;51.502;6.918;2023-08-07T12:22:37;19.00;1.00
17215;DHT22;8723;51.502;6.918;2023-08-07T12:25:04;19.00;1.00
17215;DHT22;8723;51.502;6.918;2023-08-07T12:27:31;19.00;1.00
17215;DHT22;8723;51.502;6.918;2023-08-07T12:29:58;18.90;1.00
17215;DHT22;8723;51.502;6.918;2023-08-07T12:32:25;18.80;1.00
17215;DHT22;8723;51.502;6.918;2023-08-07T12:34:52;18.90;1.00
17215;DHT22;8723;51.502;6.918;2023-08-07T12:37:19;19.10;1.00
17215;DHT22;8723;51.502;6.918;2023-08-07T12:39:47;19.20;1.00
17215;DHT22;8723;51.502;6.918;2023-08-07T12:42:14;19.30;1.00
17215;DHT22;8723;51.502;6.918;2023-08-07T12:44:41;19.10;1.00
17215;DHT22;8723;51.502;6.918;2023-08-07T12:47:08;19.00;1.00
17215;DHT22;8723;51.502;6.918;2023-08-07T12:49:35;18.80;1.00
17215;DHT22;8723;51.502;6.918;2023-08-07T12:52:02;18.60;1.00
17215;DHT22;8723;51.502;6.918;2023-08-07T12:54:29;18.30;1.00
17215;DHT22;8723;51.502;6.918;2023-08-07T12:56:57;18.10;1.00
17215;DHT22;8723;51.502;6.918;2023-08-07T12:59:24;18.10;41.20
17215;DHT22;8723;51.502;6.918;2023-08-07T13:01:51;18.10;86.00
17215;DHT22;8723;51.502;6.918;2023-08-07T13:04:18;18.20;82.80
17215;DHT22;8723;51.502;6.918;2023-08-07T13:06:45;18.40;50.60
17215;DHT22;8723;51.502;6.918;2023-08-07T13:09:14;18.50;36.50
17215;DHT22;8723;51.502;6.918;2023-08-07T13:11:41;18.60;25.70
17215;DHT22;8723;51.502;6.918;2023-08-07T13:14:09;18.80;1.00
17215;DHT22;8723;51.502;6.918;2023-08-07T13:16:36;18.90;1.00
17215;DHT22;8723;51.502;6.918;2023-08-07T13:19:03;19.00;1.00
17215;DHT22;8723;51.502;6.918;2023-08-07T13:21:29;19.10;1.00
17215;DHT22;8723;51.502;6.918;2023-08-07T13:23:56;19.10;1.00
17215;DHT22;8723;51.502;6.918;2023-08-07T13:26:23;19.30;1.00
17215;DHT22;8723;51.502;6.918;2023-08-07T13:28:50;19.40;1.00
17215;DHT22;8723;51.502;6.918;2023-08-07T13:31:18;19.50;1.00
17215;DHT22;8723;51.502;6.918;2023-08-07T13:33:45;19.50;1.00
17215;DHT22;8723;51.502;6.918;2023-08-07T13:36:11;19.70;1.00
17215;DHT22;8723;51.502;6.918;2023-08-07T13:38:38;19.80;1.00
17215;DHT22;8723;51.502;6.918;2023-08-07T13:41:05;19.80;1.00
17215;DHT22;8723;51.502;6.918;2023-08-07T13:43:32;19.70;1.00
17215;DHT22;8723;51.502;6.918;2023-08-07T13:45:59;19.60;1.00
17215;DHT22;8723;51.502;6.918;2023-08-07T13:48:27;19.50;1.00
17215;DHT22;8723;51.502;6.918;2023-08-07T13:50:54;19.50;1.00
17215;DHT22;8723;51.502;6.918;2023-08-07T13:53:20;19.40;1.00
17215;DHT22;8723;51.502;6.918;2023-08-07T13:55:49;19.40;1.00
17215;DHT22;8723;51.502;6.918;2023-08-07T13:58:16;19.30;1.00
17215;DHT22;8723;51.502;6.918;2023-08-07T14:00:43;19.30;1.00
17215;DHT22;8723;51.502;6.918;2023-08-07T14:03:10;19.20;1.00
17215;DHT22;8723;51.502;6.918;2023-08-07T14:05:39;19.10;1.00
17215;DHT22;8723;51.502;6.918;2023-08-07T14:08:06;19.10;1.00
17215;DHT22;8723;51.502;6.918;2023-08-07T14:10:35;19.10;1.00
17215;DHT22;8723;51.502;6.918;2023-08-07T14:13:02;19.00;1.00
17215;DHT22;8723;51.502;6.918;2023-08-07T14:15:28;19.00;1.00
17215;DHT22;8723;51.502;6.918;2023-08-07T14:17:55;18.90;1.00
17215;DHT22;8723;51.502;6.918;2023-08-07T14:20:23;18.90;1.00
17215;DHT22;8723;51.502;6.918;2023-08-07T14:22:51;18.90;1.00
17215;DHT22;8723;51.502;6.918;2023-08-07T14:25:18;19.00;1.00
17215;DHT22;8723;51.502;6.918;2023-08-07T14:27:47;19.10;1.00
17215;DHT22;8723;51.502;6.918;2023-08-07T14:30:14;19.20;1.00
17215;DHT22;8723;51.502;6.918;2023-08-07T14:32:41;19.20;1.00
17215;DHT22;8723;51.502;6.918;2023-08-07T14:35:08;19.10;1.00
17215;DHT22;8723;51.502;6.918;2023-08-07T14:37:35;19.00;1.00
17215;DHT22;8723;51.502;6.918;2023-08-07T14:40:04;19.00;1.00
17215;DHT22;8723;51.502;6.918;2023-08-07T14:42:32;19.00;1.00
17215;DHT22;8723;51.502;6.918;2023-08-07T14:44:59;18.90;1.00
17215;DHT22;8723;51.502;6.918;2023-08-07T14:47:26;18.90;1.00
17215;DHT22;8723;51.502;6.918;2023-08-07T14:49:52;18.90;1.00
17215;DHT22;8723;51.502;6.918;2023-08-07T14:52:19;19.00;1.00
17215;DHT22;8723;51.502;6.918;2023-08-07T14:54:46;19.00;1.00
17215;DHT22;8723;51.502;6.918;2023-08-07T14:57:14;19.00;1.00
17215;DHT22;8723;51.502;6.918;2023-08-07T14:59:41;18.90;1.00
17215;DHT22;8723;51.502;6.918;2023-08-07T15:02:08;19.00;1.00
17215;DHT22;8723;51.502;6.918;2023-08-07T15:04:35;18.90;1.00
17215;DHT22;8723;51.502;6.918;2023-08-07T15:07:02;18.80;1.00
17215;DHT22;8723;51.502;6.918;2023-08-07T15:09:29;18.60;1.00
17215;DHT22;8723;51.502;6.918;2023-08-07T15:11:55;18.60;1.00
17215;DHT22;8723;51.502;6.918;2023-08-07T15:14:23;18.70;1.00
17215;DHT22;8723;51.502;6.918;2023-08-07T15:16:50;18.70;1.00
17215;DHT22;8723;51.502;6.918;2023-08-07T15:19:17;18.60;1.00
17215;DHT22;8723;51.502;6.918;2023-08-07T15:21:44;18.60;1.00
17215;DHT22;8723;51.502;6.918;2023-08-07T15:24:11;18.60;1.00
17215;DHT22;8723;51.502;6.918;2023-08-07T15:26:37;18.70;1.00
17215;DHT22;8723;51.502;6.918;2023-08-07T15:29:04;18.80;1.00
17215;DHT22;8723;51.502;6.918;2023-08-07T15:31:32;18.70;1.00
17215;DHT22;8723;51.502;6.918;2023-08-07T15:33:59;18.80;1.00
17215;DHT22;8723;51.502;6.918;2023-08-07T15:36:26;18.80;1.00
17215;DHT22;8723;51.502;6.918;2023-08-07T15:38:53;18.90;1.00
17215;DHT22;8723;51.502;6.918;2023-08-07T15:41:20;18.80;1.00
17215;DHT22;8723;51.502;6.918;2023-08-07T15:43:47;18.60;1.00
17215;DHT22;8723;51.502;6.918;2023-08-07T15:46:15;18.60;1.00
17215;DHT22;8723;51.502;6.918;2023-08-07T15:48:43;18.60;1.00
17215;DHT22;8723;51.502;6.918;2023-08-07T15:51:09;18.60;1.00
17215;DHT22;8723;51.502;6.918;2023-08-07T15:53:36;18.60;1.00